This is the latest recevied weather packets stored in our database for station/object KQ4DLB-13. If no packets are shown the sender has not sent any weather packets the latest 10 day(s).
| Time | Temp. | Humidity | Pressure | Rain* | Wind** | Luminosity | Snow |
|---|---|---|---|---|---|---|---|
| 1777667102 | 18.33° C | 49% | 990.4 hPa | 0 mm | - | 425 W/m² | - |
| 1777666802 | 18.33° C | 50% | 990.4 hPa | 0 mm | - | 508 W/m² | - |
| 1777666502 | 18.33° C | 48% | 990.5 hPa | 0 mm | - | 521 W/m² | - |
| 1777666203 | 18.33° C | 48% | 990.6 hPa | 0 mm | - | 565 W/m² | - |
| 1777665902 | 18.33° C | 48% | 990.7 hPa | 0 mm | - | 510 W/m² | - |
| 1777665602 | 18.33° C | 49% | 990.8 hPa | 0 mm | - | 638 W/m² | - |
| 1777665302 | 18.33° C | 50% | 990.9 hPa | 0 mm | - | 757 W/m² | - |
| 1777665002 | 18.33° C | 48% | 991 hPa | 0 mm | - | 682 W/m² | - |
| 1777664702 | 18.33° C | 48% | 991.1 hPa | 0 mm | - | 791 W/m² | - |
| 1777664402 | 18.33° C | 49% | 991.2 hPa | 0 mm | - | 723 W/m² | - |
| 1777664102 | 18.33° C | 49% | 991.3 hPa | 0 mm | - | 775 W/m² | - |
| 1777663802 | 18.33° C | 50% | 991.3 hPa | 0 mm | - | 641 W/m² | - |
| 1777663502 | 18.33° C | 50% | 991.2 hPa | 0 mm | - | 463 W/m² | - |
| 1777663202 | 18.33° C | 49% | 991.4 hPa | 0 mm | - | 611 W/m² | - |
| 1777662902 | 18.33° C | 49% | 991.4 hPa | 0 mm | - | 712 W/m² | - |
| 1777662602 | 18.33° C | 50% | 991.4 hPa | 0 mm | - | 672 W/m² | - |
| 1777662303 | 18.33° C | 49% | 991.4 hPa | 0 mm | - | 709 W/m² | - |
| 1777662003 | 18.33° C | 49% | 991.4 hPa | 0 mm | - | 752 W/m² | - |
| 1777661703 | 17.78° C | 50% | 991.4 hPa | 0 mm | - | 708 W/m² | - |
| 1777661402 | 17.78° C | 50% | 991.5 hPa | 0 mm | - | 753 W/m² | - |
| 1777661102 | 17.78° C | 50% | 991.4 hPa | 0 mm | - | 692 W/m² | - |
| 1777660802 | 17.78° C | 51% | 991.4 hPa | 0 mm | - | 722 W/m² | - |
| 1777660502 | 17.78° C | 49% | 991.4 hPa | 0 mm | - | 698 W/m² | - |
| 1777660203 | 17.78° C | 49% | 991.5 hPa | 0 mm | - | 693 W/m² | - |
| 1777659902 | 17.78° C | 50% | 991.5 hPa | 0 mm | - | 734 W/m² | - |
* Rain latest hour (hover to see other rain measurements)
** Current wind speed in m/s (hover to see current wind gust speed)